Time;durP1;ratioP1;P1;durP2;ratioP2;P2;SDS_P1;SDS_P2;PMS_P1;PMS_P2;Temp;Humidity;BMP_temperature;BMP_pressure;BME280_temperature;BME280_humidity;BME280_pressure;Samples;Min_cycle;Max_cycle;Signal;HPM_P1;HPM_P2
2023/01/01 00:01:25;;;;;;;40.20;29.70;;;;;;;6.32;98.62;98558.18;107994;1266;71227;-64
2023/01/01 00:03:56;;;;;;;37.90;27.00;;;;;;;6.27;97.85;98563.92;108131;1263;69753;-64
2023/01/01 00:06:25;;;;;;;36.30;26.10;;;;;;;6.19;97.55;98559.87;107952;1266;69910;-64
2023/01/01 00:11:42;;;;;;;31.60;23.40;;;;;;;6.03;97.47;98565.31;107956;1266;58900;-64
2023/01/01 00:14:11;;;;;;;29.50;20.70;;;;;;;5.95;97.41;98564.92;108016;1266;70023;-64
2023/01/01 00:16:40;;;;;;;33.40;23.80;;;;;;;5.87;97.97;98566.71;107967;1265;69074;-64
2023/01/01 00:19:09;;;;;;;32.40;23.80;;;;;;;5.77;97.51;98575.39;107759;1267;69829;-64
2023/01/01 00:21:38;;;;;;;31.90;22.70;;;;;;;5.67;96.98;98577.30;108067;1265;58922;-65
2023/01/01 00:24:08;;;;;;;31.10;22.00;;;;;;;5.58;97.36;98574.10;108053;1260;58846;-64
2023/01/01 00:26:37;;;;;;;26.00;20.10;;;;;;;5.53;99.14;98574.10;108025;1266;70714;-64
2023/01/01 00:29:05;;;;;;;25.10;19.50;;;;;;;5.50;99.03;98577.85;108074;1263;69188;-64
2023/01/01 00:31:34;;;;;;;27.70;19.30;;;;;;;5.49;99.65;98582.03;107987;1265;69179;-64
2023/01/01 00:34:03;;;;;;;23.80;18.00;;;;;;;5.48;99.43;98576.03;108005;1263;58881;-64
2023/01/01 00:36:32;;;;;;;21.60;17.40;;;;;;;5.49;99.57;98578.77;107996;1267;58829;-64
2023/01/01 00:39:03;;;;;;;25.00;18.00;;;;;;;5.52;99.76;98588.67;108028;1260;71105;-64
2023/01/01 00:41:31;;;;;;;25.30;18.50;;;;;;;5.57;100.00;98589.70;107990;1266;68295;-64
2023/01/01 00:44:00;;;;;;;24.20;17.50;;;;;;;5.62;99.27;98597.52;108034;1262;69232;-64
2023/01/01 00:46:29;;;;;;;23.10;16.60;;;;;;;5.65;99.86;98597.59;108027;1266;58885;-64
2023/01/01 00:48:58;;;;;;;21.30;16.20;;;;;;;5.68;99.92;98597.46;108018;1265;58949;-64
2023/01/01 00:51:29;;;;;;;20.50;15.90;;;;;;;5.73;99.55;98599.05;108000;1266;70621;-64
2023/01/01 00:54:04;;;;;;;22.80;16.90;;;;;;;5.79;99.67;98605.23;108015;1266;69153;-65
2023/01/01 00:56:34;;;;;;;24.90;17.00;;;;;;;5.84;99.24;98601.93;107799;1267;69179;-64
2023/01/01 00:59:04;;;;;;;22.80;16.90;;;;;;;5.91;99.50;98602.05;108007;1265;58918;-64
2023/01/01 01:01:34;;;;;;;23.40;16.80;;;;;;;5.98;100.00;98602.52;108041;1263;58895;-64
2023/01/01 01:04:03;;;;;;;23.00;17.30;;;;;;;6.04;99.83;98594.20;107968;1260;71303;-64
2023/01/01 01:06:33;;;;;;;22.80;16.80;;;;;;;6.09;99.18;98596.24;108031;1263;69189;-64
2023/01/01 01:09:03;;;;;;;24.30;18.20;;;;;;;6.14;99.78;98598.30;108042;1263;69914;-64
2023/01/01 01:11:32;;;;;;;24.50;18.40;;;;;;;6.19;99.98;98595.73;108031;1265;58955;-64
2023/01/01 01:14:01;;;;;;;24.50;18.50;;;;;;;6.23;99.73;98596.27;107945;1263;58885;-64
2023/01/01 01:16:32;;;;;;;26.10;19.20;;;;;;;6.24;99.22;98595.87;108060;1266;70469;-64
2023/01/01 01:19:03;;;;;;;24.30;18.30;;;;;;;6.26;99.02;98591.30;108037;1267;69635;-64
2023/01/01 01:21:34;;;;;;;22.40;17.20;;;;;;;6.29;98.57;98585.31;107992;1260;69133;-64
2023/01/01 01:24:03;;;;;;;23.80;18.30;;;;;;;6.34;98.34;98581.85;107982;1265;58874;-65
2023/01/01 01:26:34;;;;;;;24.10;19.40;;;;;;;6.36;98.89;98584.33;108029;1266;59282;-65
2023/01/01 01:29:03;;;;;;;26.90;19.20;;;;;;;6.39;99.15;98588.77;107965;1262;69787;-64
2023/01/01 01:31:33;;;;;;;22.80;18.30;;;;;;;6.40;99.06;98588.72;107990;1263;68894;-64
2023/01/01 01:34:03;;;;;;;25.40;18.00;;;;;;;6.42;99.04;98586.39;107980;1266;69314;-65
2023/01/01 01:36:34;;;;;;;20.20;16.50;;;;;;;6.45;98.97;98579.69;107983;1266;58962;-64
2023/01/01 01:39:03;;;;;;;22.50;17.10;;;;;;;6.50;99.39;98581.08;107955;1264;58970;-65
2023/01/01 01:41:32;;;;;;;22.00;16.60;;;;;;;6.53;99.07;98583.52;107953;1262;70354;-64
2023/01/01 01:44:26;;;;;;;19.30;15.40;;;;;;;6.56;98.39;98588.11;108010;1264;69688;-65
2023/01/01 01:46:58;;;;;;;20.10;16.10;;;;;;;6.56;98.51;98589.84;107997;1265;69270;-64
2023/01/01 01:49:31;;;;;;;19.10;14.40;;;;;;;6.58;98.45;98592.20;108055;1266;58909;-64
2023/01/01 01:52:00;;;;;;;20.40;13.40;;;;;;;6.61;99.39;98595.88;108063;1262;58985;-64
2023/01/01 01:54:29;;;;;;;18.50;14.10;;;;;;;6.64;99.50;98593.52;108023;1267;69978;-64
2023/01/01 01:57:04;;;;;;;18.60;13.30;;;;;;;6.66;99.40;98590.51;108037;1260;68536;-64
2023/01/01 01:59:37;;;;;;;32.30;21.10;;;;;;;6.65;99.83;98587.95;108089;1263;69761;-64
2023/01/01 02:02:17;;;;;;;35.70;28.20;;;;;;;6.64;99.88;98585.38;108077;1266;58896;-64
2023/01/01 02:04:47;;;;;;;42.60;30.50;;;;;;;6.60;99.94;98585.88;108038;1263;58930;-64
2023/01/01 02:07:17;;;;;;;39.50;29.70;;;;;;;6.56;99.77;98582.38;108066;1266;69923;-64
2023/01/01 02:09:46;;;;;;;;;;;;;;;6.55;99.84;98586.08;108098;1267;67428;-64
2023/01/01 02:12:15;;;;;;;39.60;29.60;;;;;;;6.54;99.84;98586.11;108052;1262;68571;-64
2023/01/01 02:14:44;;;;;;;40.80;29.40;;;;;;;6.52;99.61;98577.35;108064;1266;58979;-64
2023/01/01 02:17:46;;;;;;;39.90;28.10;;;;;;;6.54;99.97;98577.43;108025;1265;58945;-64
2023/01/01 02:20:33;;;;;;;36.30;26.60;;;;;;;6.56;99.60;98570.09;108024;1265;71241;-64
2023/01/01 02:23:24;;;;;;;37.10;27.00;;;;;;;6.59;99.82;98572.74;108072;1260;69820;-65
2023/01/01 02:25:56;;;;;;;43.90;31.50;;;;;;;6.62;100.00;98577.15;108014;1260;68219;-64
2023/01/01 02:28:42;;;;;;;41.90;28.10;;;;;;;6.61;99.65;98578.03;108033;1266;58961;-64
2023/01/01 02:31:19;;;;;;;34.20;25.50;;;;;;;6.58;99.36;98581.99;108053;1262;58855;-64
2023/01/01 02:33:55;;;;;;;30.60;20.60;;;;;;;6.56;99.32;98577.19;108050;1262;71186;-64
2023/01/01 02:36:27;;;;;;;27.40;18.20;;;;;;;6.58;99.42;98582.65;108019;1265;69139;-64
2023/01/01 02:38:59;;;;;;;22.50;17.70;;;;;;;6.64;99.83;98586.59;108051;1266;69859;-65
2023/01/01 02:41:40;;;;;;;27.40;19.00;;;;;;;6.69;99.97;98582.08;108100;1265;59002;-64
2023/01/01 02:44:11;;;;;;;19.20;15.40;;;;;;;6.72;99.63;98577.46;108023;1260;58884;-65
2023/01/01 02:46:41;;;;;;;42.70;30.30;;;;;;;6.76;99.59;98584.59;107989;1266;70500;-64
2023/01/01 02:49:11;;;;;;;47.60;34.40;;;;;;;6.72;97.58;98582.65;108022;1265;70003;-65
2023/01/01 02:51:52;;;;;;;49.90;36.60;;;;;;;6.65;96.82;98584.13;108018;1262;69251;-64
2023/01/01 02:54:55;;;;;;;45.20;31.30;;;;;;;6.49;96.34;98583.87;107988;1267;58909;-64
2023/01/01 02:57:36;;;;;;;51.10;36.10;;;;;;;6.34;97.04;98584.59;108016;1266;58878;-64
2023/01/01 03:00:18;;;;;;;47.30;34.10;;;;;;;6.29;98.19;98590.00;108008;1265;70622;-63
2023/01/01 03:02:56;;;;;;;50.40;33.20;;;;;;;6.23;98.95;98594.02;107958;1260;69814;-65
2023/01/01 03:06:21;;;;;;;43.70;32.20;;;;;;;6.24;98.94;98593.30;107999;1266;69450;-63
2023/01/01 03:08:57;;;;;;;36.40;25.90;;;;;;;6.24;98.91;98586.71;108093;1262;58918;-63
2023/01/01 03:11:38;;;;;;;38.20;27.90;;;;;;;6.27;99.04;98585.73;108015;1265;58937;-65
2023/01/01 03:14:15;;;;;;;40.80;28.10;;;;;;;6.31;99.95;98586.11;108065;1265;71185;-64
2023/01/01 03:16:49;;;;;;;33.60;25.50;;;;;;;6.31;99.79;98591.12;108079;1266;69687;-63
2023/01/01 03:19:25;;;;;;;39.50;29.10;;;;;;;6.31;99.71;98588.88;108049;1265;68318;-63
2023/01/01 03:22:10;;;;;;;41.20;30.20;;;;;;;6.28;99.82;98586.04;108043;1262;58916;-63
2023/01/01 03:25:11;;;;;;;47.60;34.60;;;;;;;6.26;99.67;98589.40;108079;1261;59298;-63
2023/01/01 03:27:42;;;;;;;37.10;28.00;;;;;;;6.20;98.65;98590.85;108052;1263;70589;-64
2023/01/01 03:30:14;;;;;;;35.80;28.20;;;;;;;6.12;98.77;98589.73;108021;1262;68562;-63
2023/01/01 03:33:06;;;;;;;38.40;26.60;;;;;;;6.07;99.67;98586.45;108010;1262;69694;-63
2023/01/01 03:35:57;;;;;;;36.30;25.80;;;;;;;6.05;99.36;98592.59;107993;1267;58947;-64
2023/01/01 03:38:34;;;;;;;34.60;26.90;;;;;;;6.03;100.00;98596.09;108051;1266;58886;-64
2023/01/01 03:41:11;;;;;;;39.90;29.80;;;;;;;6.02;100.00;98603.60;108009;1260;69576;-64
2023/01/01 03:43:53;;;;;;;40.40;30.10;;;;;;;5.97;100.00;98607.58;108002;1266;69233;-63
2023/01/01 03:46:29;;;;;;;35.30;26.70;;;;;;;5.93;100.00;98617.58;108026;1266;69187;-63
2023/01/01 03:49:00;;;;;;;37.80;26.20;;;;;;;5.90;99.98;98619.56;108012;1263;58893;-63
2023/01/01 03:51:54;;;;;;;39.70;26.40;;;;;;;5.87;100.00;98624.16;108025;1262;58895;-63
2023/01/01 03:54:29;;;;;;;34.60;24.80;;;;;;;5.85;100.00;98621.81;108018;1266;71288;-64
2023/01/01 03:57:10;;;;;;;29.30;22.40;;;;;;;5.84;100.00;98625.65;108051;1266;69114;-63
2023/01/01 03:59:56;;;;;;;30.30;21.40;;;;;;;5.85;100.00;98621.30;108025;1262;68311;-63
2023/01/01 04:02:40;;;;;;;26.60;20.00;;;;;;;5.85;100.00;98625.27;108011;1261;58918;-63
2023/01/01 04:05:11;;;;;;;24.80;18.80;;;;;;;5.84;100.00;98628.95;108030;1266;58978;-63
2023/01/01 04:07:41;;;;;;;27.70;19.60;;;;;;;5.80;100.00;98633.92;107972;1267;69640;-63
2023/01/01 04:10:18;;;;;;;27.90;20.40;;;;;;;5.73;100.00;98633.66;107984;1266;68309;-63
2023/01/01 04:12:55;;;;;;;26.70;19.40;;;;;;;5.64;100.00;98631.67;108000;1264;68818;-63
2023/01/01 04:15:26;;;;;;;35.10;26.70;;;;;;;5.58;100.00;98633.95;107983;1265;58932;-63
2023/01/01 04:17:56;;;;;;;33.30;23.90;;;;;;;5.53;100.00;98641.39;107993;1266;58900;-63
2023/01/01 04:20:25;;;;;;;28.80;21.50;;;;;;;5.49;100.00;98644.28;107699;1268;71457;-63
2023/01/01 04:23:00;;;;;;;32.60;24.80;;;;;;;5.46;100.00;98645.79;107940;1264;69097;-63
2023/01/01 04:25:30;;;;;;;36.40;26.20;;;;;;;5.40;100.00;98648.72;107956;1260;68938;-63
2023/01/01 04:28:02;;;;;;;33.90;25.80;;;;;;;5.34;100.00;98654.11;107982;1265;58924;-63
2023/01/01 04:30:31;;;;;;;38.70;28.90;;;;;;;5.28;100.00;98651.70;108003;1267;58879;-63
2023/01/01 04:33:00;;;;;;;42.10;31.40;;;;;;;5.24;100.00;98650.98;107997;1262;70112;-63
2023/01/01 04:35:29;;;;;;;45.10;32.60;;;;;;;5.19;100.00;98657.54;107962;1265;68261;-63
2023/01/01 04:38:02;;;;;;;39.20;29.80;;;;;;;5.15;100.00;98649.54;107970;1267;68484;-63
2023/01/01 04:40:32;;;;;;;31.70;22.80;;;;;;;5.07;100.00;98646.31;107956;1266;58957;-63
2023/01/01 04:43:01;;;;;;;36.20;25.00;;;;;;;5.00;100.00;98650.34;107970;1260;58887;-63
2023/01/01 04:45:31;;;;;;;29.00;22.30;;;;;;;4.90;100.00;98658.59;107971;1266;69570;-63
2023/01/01 04:48:05;;;;;;;33.70;24.10;;;;;;;4.79;100.00;98659.25;107989;1266;69017;-63
2023/01/01 04:50:35;;;;;;;32.60;24.40;;;;;;;4.73;100.00;98656.66;107936;1262;68487;-63
2023/01/01 04:53:05;;;;;;;37.30;25.80;;;;;;;4.69;100.00;98654.39;107723;1265;58937;-63
2023/01/01 04:55:34;;;;;;;37.50;25.40;;;;;;;4.61;100.00;98654.25;107991;1260;58885;-63
2023/01/01 04:58:04;;;;;;;33.30;24.20;;;;;;;4.53;100.00;98653.09;107964;1264;70939;-63
2023/01/01 05:00:34;;;;;;;27.70;20.20;;;;;;;4.48;100.00;98648.41;108029;1264;68302;-63
2023/01/01 05:03:03;;;;;;;30.70;22.20;;;;;;;4.46;100.00;98646.05;108003;1261;68279;-63
2023/01/01 05:05:33;;;;;;;34.30;25.00;;;;;;;4.44;100.00;98657.34;107962;1257;58885;-63
2023/01/01 05:08:03;;;;;;;33.30;24.40;;;;;;;4.41;100.00;98657.42;108020;1263;58985;-63
2023/01/01 05:10:33;;;;;;;35.30;25.40;;;;;;;4.39;100.00;98654.73;107984;1260;71571;-63
2023/01/01 05:13:05;;;;;;;;;;;;;;;4.36;100.00;98653.08;108037;1265;69256;-63
2023/01/01 05:15:36;;;;;;;35.70;24.70;;;;;;;4.27;100.00;98651.25;108012;1266;69448;-63
2023/01/01 05:18:05;;;;;;;30.90;20.50;;;;;;;4.18;100.00;98658.58;107985;1266;58917;-63
2023/01/01 05:20:35;;;;;;;49.00;33.40;;;;;;;4.15;100.00;98668.14;108062;1260;58870;-63
2023/01/01 05:23:05;;;;;;;38.50;25.50;;;;;;;4.14;100.00;98668.52;107977;1265;69689;-63
2023/01/01 05:25:35;;;;;;;40.60;27.50;;;;;;;4.10;100.00;98671.23;108033;1265;69002;-64
2023/01/01 05:28:07;;;;;;;38.70;26.60;;;;;;;4.05;100.00;98674.61;107998;1267;69229;-63
2023/01/01 05:30:39;;;;;;;37.10;27.10;;;;;;;4.03;100.00;98676.21;108055;1267;58909;-64
2023/01/01 05:33:10;;;;;;;30.90;21.50;;;;;;;4.08;100.00;98676.27;108028;1263;58892;-64
2023/01/01 05:35:40;;;;;;;32.70;23.30;;;;;;;4.14;100.00;98677.84;108096;1266;70583;-64
2023/01/01 05:38:09;;;;;;;34.00;23.20;;;;;;;4.16;100.00;98685.20;107996;1266;69233;-63
2023/01/01 05:40:39;;;;;;;31.90;19.80;;;;;;;4.15;100.00;98692.15;108065;1260;69941;-63
2023/01/01 05:43:08;;;;;;;34.00;22.10;;;;;;;4.13;100.00;98698.23;108012;1265;59302;-64
2023/01/01 05:45:37;;;;;;;32.80;21.30;;;;;;;4.13;100.00;98698.41;108028;1263;58894;-64
2023/01/01 05:48:07;;;;;;;33.60;23.00;;;;;;;4.13;100.00;98698.77;108043;1264;70618;-64
2023/01/01 05:50:36;;;;;;;38.90;25.10;;;;;;;4.13;100.00;98699.28;108040;1260;69136;-63
2023/01/01 05:53:05;;;;;;;40.20;25.60;;;;;;;4.14;100.00;98702.86;108056;1266;69322;-63
2023/01/01 05:55:34;;;;;;;29.40;20.30;;;;;;;4.11;100.00;98697.77;108058;1266;58961;-63
2023/01/01 05:58:04;;;;;;;31.40;22.20;;;;;;;4.05;100.00;98699.12;107991;1267;58942;-65
2023/01/01 06:00:33;;;;;;;31.10;23.20;;;;;;;3.99;100.00;98699.79;108016;1266;70619;-64
2023/01/01 06:03:02;;;;;;;25.90;19.40;;;;;;;3.91;100.00;98705.02;108100;1265;69172;-63
2023/01/01 06:05:31;;;;;;;29.00;21.10;;;;;;;3.80;100.00;98705.97;108035;1265;68127;-64
2023/01/01 06:08:01;;;;;;;27.80;20.40;;;;;;;3.71;100.00;98711.88;108029;1265;58962;-64
2023/01/01 06:10:30;;;;;;;32.80;22.30;;;;;;;3.63;100.00;98712.77;107996;1266;58995;-64
2023/01/01 06:13:00;;;;;;;30.90;22.80;;;;;;;3.57;100.00;98712.57;107875;1263;70666;-64
2023/01/01 06:15:29;;;;;;;35.80;23.00;;;;;;;3.55;100.00;98718.81;108053;1266;69088;-64
2023/01/01 06:17:59;;;;;;;32.20;22.40;;;;;;;3.54;100.00;98719.16;107909;1263;69093;-64
2023/01/01 06:20:29;;;;;;;32.30;23.20;;;;;;;3.55;100.00;98724.67;108035;1266;58956;-64
2023/01/01 06:22:59;;;;;;;36.70;24.00;;;;;;;3.55;100.00;98721.59;108043;1263;58965;-63
2023/01/01 06:25:27;;;;;;;31.10;23.60;;;;;;;3.55;100.00;98724.32;108027;1266;71227;-63
2023/01/01 06:27:57;;;;;;;27.90;19.70;;;;;;;3.56;100.00;98724.83;108027;1266;69276;-64
2023/01/01 06:30:27;;;;;;;46.50;25.30;;;;;;;3.62;100.00;98726.93;107961;1260;69993;-63
2023/01/01 06:32:56;;;;;;;33.50;23.20;;;;;;;3.68;100.00;98733.51;108074;1261;58960;-63
2023/01/01 06:35:26;;;;;;;34.00;22.50;;;;;;;3.72;100.00;98736.54;108013;1262;58968;-63
2023/01/01 06:37:58;;;;;;;36.20;22.00;;;;;;;3.73;100.00;98737.35;108018;1266;70482;-63
2023/01/01 06:40:27;;;;;;;32.20;22.00;;;;;;;3.73;100.00;98736.31;108045;1266;68793;-64
2023/01/01 06:42:57;;;;;;;35.20;24.00;;;;;;;3.71;100.00;98736.55;107998;1262;69277;-63
2023/01/01 06:45:25;;;;;;;28.80;22.00;;;;;;;3.69;100.00;98739.70;108054;1260;58929;-63
2023/01/01 06:47:56;;;;;;;28.70;19.90;;;;;;;3.67;100.00;98738.38;108029;1267;58846;-64
2023/01/01 06:50:26;;;;;;;31.70;20.90;;;;;;;3.70;100.00;98743.30;108029;1263;69772;-64
2023/01/01 06:52:55;;;;;;;28.20;20.80;;;;;;;3.77;100.00;98747.59;107974;1260;68821;-63
2023/01/01 06:55:24;;;;;;;30.50;21.70;;;;;;;3.85;100.00;98749.66;108044;1264;69950;-64
2023/01/01 06:57:53;;;;;;;32.40;20.90;;;;;;;3.91;100.00;98748.80;108043;1266;58872;-63
2023/01/01 07:00:22;;;;;;;28.20;19.70;;;;;;;3.98;100.00;98750.88;108032;1262;58886;-63
2023/01/01 07:02:51;;;;;;;28.20;19.30;;;;;;;4.05;100.00;98758.64;108003;1266;71096;-64
2023/01/01 07:05:21;;;;;;;32.50;20.90;;;;;;;4.16;100.00;98757.51;108009;1266;69243;-64
2023/01/01 07:07:49;;;;;;;27.10;18.70;;;;;;;4.31;100.00;98755.91;108043;1262;69903;-64
2023/01/01 07:10:19;;;;;;;23.30;17.70;;;;;;;4.58;100.00;98754.15;107981;1266;59276;-64
2023/01/01 07:12:47;;;;;;;23.60;17.70;;;;;;;4.82;100.00;98750.38;108072;1266;58916;-65
2023/01/01 07:15:16;;;;;;;22.20;16.60;;;;;;;5.01;100.00;98750.34;107992;1266;69705;-65
2023/01/01 07:17:46;;;;;;;22.90;16.90;;;;;;;5.16;100.00;98748.02;107997;1265;69826;-65
2023/01/01 07:20:15;;;;;;;23.60;16.30;;;;;;;5.29;100.00;98751.24;108014;1267;69307;-65
2023/01/01 07:22:43;;;;;;;25.90;19.10;;;;;;;5.38;100.00;98754.42;107997;1266;59777;-65
2023/01/01 07:25:14;;;;;;;27.00;20.30;;;;;;;5.39;99.66;98751.46;107982;1267;59703;-65
2023/01/01 07:27:44;;;;;;;22.90;18.10;;;;;;;5.33;98.78;98750.59;108027;1266;71371;-63
2023/01/01 07:30:14;;;;;;;21.60;18.10;;;;;;;5.35;99.24;98756.59;107971;1266;69813;-63
2023/01/01 07:32:43;;;;;;;20.70;16.20;;;;;;;5.39;98.91;98758.73;107996;1266;70254;-63
2023/01/01 07:35:12;;;;;;;20.10;15.50;;;;;;;5.45;98.48;98762.35;107976;1261;59746;-63
2023/01/01 07:37:42;;;;;;;21.70;15.50;;;;;;;5.49;98.21;98759.63;108071;1265;59819;-64
2023/01/01 07:40:11;;;;;;;18.80;15.60;;;;;;;5.53;98.86;98769.35;107981;1266;71866;-65
2023/01/01 07:42:39;;;;;;;20.40;16.20;;;;;;;5.58;99.11;98766.61;108056;1266;69317;-64
2023/01/01 07:45:11;;;;;;;22.10;16.90;;;;;;;5.65;99.46;98773.29;107993;1267;69707;-64
2023/01/01 07:47:40;;;;;;;18.00;14.10;;;;;;;5.82;99.95;98779.69;108033;1267;59750;-65
2023/01/01 07:50:16;;;;;;;21.40;17.30;;;;;;;6.08;99.75;98779.91;108018;1266;59693;-64
2023/01/01 07:52:44;;;;;;;31.00;24.40;;;;;;;6.37;95.92;98783.63;107992;1264;72022;-64
2023/01/01 07:55:16;;;;;;;34.10;27.50;;;;;;;6.77;91.35;98779.98;107981;1266;69672;-64
2023/01/01 07:57:45;;;;;;;34.00;26.40;;;;;;;7.28;89.93;98778.95;107956;1266;69744;-64
2023/01/01 08:00:18;;;;;;;27.30;22.10;;;;;;;7.92;87.43;98778.70;107981;1266;59764;-64
2023/01/01 08:02:47;;;;;;;27.50;21.10;;;;;;;8.41;86.17;98775.67;107991;1266;59613;-64
2023/01/01 08:05:17;;;;;;;21.50;17.40;;;;;;;8.72;88.04;98776.27;108008;1266;71997;-64
2023/01/01 08:07:51;;;;;;;21.00;17.50;;;;;;;8.83;84.79;98776.84;107965;1265;69790;-64
2023/01/01 08:10:21;;;;;;;18.90;15.50;;;;;;;8.98;88.55;98780.35;107968;1267;69196;-65
2023/01/01 08:12:50;;;;;;;34.50;28.20;;;;;;;8.86;82.43;98782.11;108033;1261;59669;-63
2023/01/01 08:15:18;;;;;;;31.70;26.50;;;;;;;8.55;78.85;98786.55;107941;1267;59694;-63
2023/01/01 08:17:47;;;;;;;34.00;27.70;;;;;;;8.18;80.20;98790.69;107931;1266;71989;-64
2023/01/01 08:20:16;;;;;;;35.80;28.10;;;;;;;7.92;81.73;98791.90;108038;1266;68670;-64
2023/01/01 08:22:45;;;;;;;32.90;25.60;;;;;;;7.82;82.61;98791.30;108036;1267;69883;-65
2023/01/01 08:25:14;;;;;;;32.70;26.20;;;;;;;7.92;83.07;98794.55;107909;1267;59843;-64
2023/01/01 08:27:42;;;;;;;29.30;24.70;;;;;;;8.01;83.58;98795.72;107974;1267;59721;-64
2023/01/01 08:30:14;;;;;;;26.10;21.60;;;;;;;8.33;83.83;98798.60;107984;1267;70615;-64
2023/01/01 08:32:43;;;;;;;43.60;31.20;;;;;;;8.85;85.61;98798.30;107983;1267;69170;-64
2023/01/01 08:35:12;;;;;;;64.20;49.00;;;;;;;9.23;83.29;98797.66;108024;1264;69948;-64
2023/01/01 08:37:42;;;;;;;71.30;51.20;;;;;;;9.47;80.73;98798.66;108027;1266;59779;-64
2023/01/01 08:40:12;;;;;;;55.90;43.80;;;;;;;9.61;77.66;98804.41;108055;1267;59674;-64
2023/01/01 08:42:41;;;;;;;50.10;38.80;;;;;;;9.99;76.83;98800.20;107996;1267;71915;-67
2023/01/01 08:45:10;;;;;;;42.70;32.40;;;;;;;10.49;75.98;98797.23;107994;1261;69210;-64
2023/01/01 08:47:39;;;;;;;33.20;26.90;;;;;;;11.00;75.25;98791.29;108006;1267;69185;-64
2023/01/01 08:50:08;;;;;;;30.60;26.60;;;;;;;11.58;75.79;98791.28;108011;1266;59775;-64
2023/01/01 08:52:37;;;;;;;31.90;27.30;;;;;;;12.00;71.79;98792.14;108002;1266;59759;-65
2023/01/01 08:55:06;;;;;;;36.10;32.20;;;;;;;12.38;69.24;98792.58;108009;1266;70867;-65
2023/01/01 08:57:34;;;;;;;32.00;28.60;;;;;;;12.88;69.62;98789.21;107987;1266;69265;-63
2023/01/01 09:00:04;;;;;;;34.50;29.60;;;;;;;13.54;68.73;98791.47;108104;1267;68391;-63
2023/01/01 09:02:33;;;;;;;37.60;30.90;;;;;;;14.13;71.80;98786.50;107959;1267;59685;-65
2023/01/01 09:05:02;;;;;;;34.40;30.70;;;;;;;14.15;63.51;98786.89;108004;1266;59762;-64
2023/01/01 09:07:31;;;;;;;32.30;28.80;;;;;;;14.27;62.98;98788.20;107978;1266;72489;-64
2023/01/01 09:09:59;;;;;;;29.10;25.30;;;;;;;14.73;61.81;98782.70;108019;1266;68622;-65
2023/01/01 09:12:28;;;;;;;25.50;22.80;;;;;;;15.34;60.61;98781.13;107975;1267;69879;-65
2023/01/01 09:14:57;;;;;;;25.60;23.00;;;;;;;15.86;59.01;98774.05;107940;1267;59759;-65
2023/01/01 09:17:26;;;;;;;25.70;23.10;;;;;;;16.68;57.78;98775.35;108019;1267;59697;-66
2023/01/01 09:19:55;;;;;;;;;;;;;;;17.24;58.41;98768.51;108049;1267;71987;-64
2023/01/01 09:22:24;;;;;;;17.50;15.70;;;;;;;17.31;54.15;98763.44;107988;1260;67557;-64
2023/01/01 09:24:53;;;;;;;17.70;15.90;;;;;;;17.29;53.61;98756.30;107985;1266;68498;-64
2023/01/01 09:27:22;;;;;;;15.70;14.10;;;;;;;17.34;52.95;98755.44;107962;1266;59771;-64
2023/01/01 09:29:50;;;;;;;14.00;12.60;;;;;;;18.16;55.51;98755.82;107977;1267;59688;-64
2023/01/01 09:32:22;;;;;;;14.30;12.80;;;;;;;18.78;55.33;98748.20;108005;1265;71903;-64
2023/01/01 09:34:51;;;;;;;16.10;14.50;;;;;;;19.15;53.30;98746.29;107984;1266;69787;-64
2023/01/01 09:37:20;;;;;;;13.50;12.30;;;;;;;18.63;49.19;98744.71;108031;1266;69825;-64
2023/01/01 09:39:49;;;;;;;11.00;9.90;;;;;;;19.16;51.09;98743.50;107963;1267;59744;-65
2023/01/01 09:42:21;;;;;;;;;;;;;;;19.44;50.85;98744.83;108020;1267;59722;-65
2023/01/01 09:45:22;;;;;;;12.10;10.00;;;;;;;19.32;48.54;98744.81;108023;1267;71338;-65
2023/01/01 09:48:01;;;;;;;12.60;10.70;;;;;;;19.38;48.93;98741.20;107991;1267;69145;-65
2023/01/01 09:50:42;;;;;;;12.60;11.30;;;;;;;19.79;49.76;98738.46;108011;1266;69790;-65
2023/01/01 09:53:35;;;;;;;12.50;11.20;;;;;;;20.15;47.63;98733.48;108011;1266;59661;-64
2023/01/01 09:56:05;;;;;;;12.00;10.80;;;;;;;19.97;46.09;98731.21;108001;1267;59702;-65
2023/01/01 09:58:35;;;;;;;;;;;;;;;20.35;45.33;98725.81;108008;1267;72020;-65
2023/01/01 10:01:41;;;;;;;12.80;11.40;;;;;;;20.52;44.53;98720.39;107983;1267;68397;-65
2023/01/01 10:04:51;;;;;;;12.40;11.00;;;;;;;20.96;44.49;98708.95;107973;1270;69751;-64
2023/01/01 10:07:52;;;;;;;10.30;9.20;;;;;;;21.30;43.28;98709.92;107337;1273;59798;-64
2023/01/01 10:10:49;;;;;;;10.40;9.30;;;;;;;21.96;41.55;98711.88;107099;1272;59772;-64
2023/01/01 10:13:47;;;;;;;9.60;8.60;;;;;;;21.73;41.25;98710.92;107938;1262;70922;-64
2023/01/01 10:16:41;;;;;;;9.20;8.10;;;;;;;22.25;43.15;98709.33;107880;1264;69689;-65
2023/01/01 10:19:35;;;;;;;7.80;6.90;;;;;;;23.03;42.31;98700.83;107994;1266;69813;-65
2023/01/01 10:22:33;;;;;;;9.40;8.30;;;;;;;22.81;39.14;98701.11;108015;1261;59744;-65
2023/01/01 10:25:23;;;;;;;9.30;7.90;;;;;;;22.76;39.15;98700.59;107955;1263;59681;-65
2023/01/01 10:27:58;;;;;;;7.80;7.00;;;;;;;22.65;39.71;98696.92;108011;1266;70577;-64
2023/01/01 10:30:29;;;;;;;8.30;6.50;;;;;;;22.51;38.73;98697.60;107968;1266;68643;-64
2023/01/01 10:32:58;;;;;;;9.90;7.80;;;;;;;22.43;39.11;98696.67;107993;1267;69227;-65
2023/01/01 10:35:39;;;;;;;6.80;6.10;;;;;;;22.51;39.21;98696.94;107980;1266;59753;-65
2023/01/01 10:38:22;;;;;;;7.90;5.90;;;;;;;23.07;38.60;98690.27;107983;1265;59688;-64
2023/01/01 10:40:55;;;;;;;7.30;6.30;;;;;;;22.94;38.30;98689.50;108035;1263;70429;-65
2023/01/01 10:43:23;;;;;;;8.20;6.30;;;;;;;23.22;37.19;98686.22;108004;1267;69222;-64
2023/01/01 10:45:54;;;;;;;6.70;6.10;;;;;;;24.23;38.25;98685.26;107964;1267;69271;-65
2023/01/01 10:48:25;;;;;;;6.80;6.10;;;;;;;24.06;36.05;98680.48;108013;1265;59730;-65
2023/01/01 10:51:06;;;;;;;6.50;5.80;;;;;;;24.13;35.79;98676.51;108021;1267;59752;-64
2023/01/01 10:53:51;;;;;;;6.80;5.70;;;;;;;24.47;35.58;98670.50;108054;1267;71868;-64
2023/01/01 10:56:22;;;;;;;6.40;5.50;;;;;;;24.66;34.87;98665.91;108023;1265;69690;-64
2023/01/01 10:58:53;;;;;;;6.40;5.80;;;;;;;25.23;34.50;98664.35;107958;1266;68101;-64
2023/01/01 11:01:28;;;;;;;7.00;6.00;;;;;;;25.31;34.40;98664.02;108008;1263;59738;-64
2023/01/01 11:04:18;;;;;;;8.80;6.80;;;;;;;25.03;34.38;98660.35;108006;1267;60161;-65
2023/01/01 11:06:47;;;;;;;7.70;5.60;;;;;;;24.92;34.26;98659.97;108030;1270;70411;-64
2023/01/01 11:09:37;;;;;;;;;;;;;;;24.95;35.41;98656.64;108009;1267;69095;-65
2023/01/01 11:12:17;;;;;;;5.30;4.60;;;;;;;23.87;35.37;98656.36;107977;1266;69839;-65
2023/01/01 11:15:07;;;;;;;6.20;4.80;;;;;;;23.36;36.20;98655.45;107957;1270;59733;-66
2023/01/01 11:17:36;;;;;;;4.50;3.80;;;;;;;23.72;36.55;98657.31;107971;1267;59765;-64
2023/01/01 11:20:05;;;;;;;5.60;5.10;;;;;;;23.04;36.22;98653.38;107957;1266;72019;-64
2023/01/01 11:22:40;;;;;;;7.60;5.40;;;;;;;23.06;36.62;98644.95;107993;1262;69178;-65
2023/01/01 11:25:18;;;;;;;6.10;4.10;;;;;;;22.69;37.46;98648.84;107972;1265;69772;-65
2023/01/01 11:27:49;;;;;;;5.70;4.80;;;;;;;22.83;37.26;98641.81;107975;1267;59770;-65
2023/01/01 11:30:24;;;;;;;5.30;4.50;;;;;;;23.01;37.88;98639.34;107963;1266;59661;-64
2023/01/01 11:33:02;;;;;;;6.80;5.20;;;;;;;23.16;37.34;98632.30;107953;1262;71260;-64
2023/01/01 11:35:36;;;;;;;6.40;5.10;;;;;;;23.19;37.35;98633.80;107995;1265;69691;-64
2023/01/01 11:38:04;;;;;;;5.10;4.60;;;;;;;22.86;36.98;98632.17;107947;1265;69864;-64
2023/01/01 11:40:44;;;;;;;5.20;4.70;;;;;;;23.08;36.60;98627.05;107983;1266;59761;-65
2023/01/01 11:43:23;;;;;;;6.50;5.40;;;;;;;22.82;37.06;98631.73;108002;1266;59698;-64
2023/01/01 11:45:54;;;;;;;5.60;4.30;;;;;;;23.23;36.60;98625.17;108002;1265;71370;-64
2023/01/01 11:48:32;;;;;;;4.40;3.80;;;;;;;23.63;37.76;98623.70;107980;1266;69176;-65